Skip Navigation Links
NOAA logo - Click to go to the NOAA homepage
NOAA's National Weather Service
Alaska Aviation Weather Unit
  NWS logo - Click to go to the NWS homepage
Left Navbar Graphic     21 AKDT = 05 GMT

   
NOAA is celebrating 200 years of science, service, and stewardship. Visit the NOAA 200th celebration Web site to learn more.
USA.gov is the U.S. Government's official Web portal to all Federal, state and local government Web resources and services.
Facebook
NWS on Facebook

AAWU Home :: Display TAF Add Bookmark
TAF PAUN 262320Z 2700/2724 32010KT P6SM BKN120 BKN200
     FM270400 08007KT P6SM BKN060 BKN100=
METAR PAUN 262356Z AUTO 32010KT 10SM BKN065 07/01 A2957 RMK AO2 SLP016
     T00720011 10094 20044 50002=

METAR PAUN 270056Z AUTO 32010KT 10SM FEW070 07/01 A2956 RMK AO2 SLP015
     T00720006=

METAR PAUN 270156Z AUTO 32011KT 10SM FEW055 07/01 A2956 RMK AO2
 SLP015 T00670006=

METAR PAUN 270256Z AUTO 32011KT 10SM CLR 07/01 A2956 RMK AO2 SLP016
     T00720006 55000=

METAR PAUN 270356Z AUTO 32011KT 10SM SCT080 07/01 A2957 RMK AO2 SLP016
     T00670006=

METAR PAUN 270456Z AUTO 32010KT 10SM OVC090 06/01 A2957 RMK AO2
 SLP018 T00610006=


NOAA's National Weather Service
Alaska Aviation Weather Unit
6930 Sand Lake Road
Anchorage, AK 99502-1845
Disclaimer
Credits
Glossary
Privacy Policy
About Us
Career Opportunities
Contact AAWU Internet Services Site last modified: April, 17th 2012